sensor_id;sensor_type;location;lat;lon;timestamp;P1;durP1;ratioP1;P2;durP2;ratioP2
21639;SDS011;10981;45.462;10.974;2024-03-02T00:00:27;13.70;;;1.65;;
21639;SDS011;10981;45.462;10.974;2024-03-02T00:02:55;6.82;;;1.50;;
21639;SDS011;10981;45.462;10.974;2024-03-02T00:05:26;9.95;;;1.38;;
21639;SDS011;10981;45.462;10.974;2024-03-02T00:07:55;2.28;;;1.40;;
21639;SDS011;10981;45.462;10.974;2024-03-02T00:10:25;6.40;;;1.88;;
21639;SDS011;10981;45.462;10.974;2024-03-02T00:12:59;3.22;;;1.35;;
21639;SDS011;10981;45.462;10.974;2024-03-02T00:18:10;3.35;;;1.38;;
21639;SDS011;10981;45.462;10.974;2024-03-02T00:20:40;2.38;;;1.35;;
21639;SDS011;10981;45.462;10.974;2024-03-02T00:23:10;4.28;;;1.40;;
21639;SDS011;10981;45.462;10.974;2024-03-02T00:25:43;6.55;;;1.95;;
21639;SDS011;10981;45.462;10.974;2024-03-02T00:28:17;8.65;;;1.55;;
21639;SDS011;10981;45.462;10.974;2024-03-02T00:33:35;7.22;;;1.40;;
21639;SDS011;10981;45.462;10.974;2024-03-02T00:36:05;6.22;;;1.30;;
21639;SDS011;10981;45.462;10.974;2024-03-02T00:38:34;6.25;;;1.75;;
21639;SDS011;10981;45.462;10.974;2024-03-02T00:46:28;5.22;;;1.20;;
21639;SDS011;10981;45.462;10.974;2024-03-02T00:49:00;8.65;;;1.70;;
21639;SDS011;10981;45.462;10.974;2024-03-02T00:51:49;4.70;;;1.30;;
21639;SDS011;10981;45.462;10.974;2024-03-02T00:54:20;3.45;;;1.42;;
21639;SDS011;10981;45.462;10.974;2024-03-02T00:56:52;9.30;;;1.73;;
21639;SDS011;10981;45.462;10.974;2024-03-02T00:59:23;7.35;;;1.70;;
21639;SDS011;10981;45.462;10.974;2024-03-02T01:01:51;6.10;;;1.40;;
21639;SDS011;10981;45.462;10.974;2024-03-02T01:04:21;7.07;;;1.35;;
21639;SDS011;10981;45.462;10.974;2024-03-02T01:06:49;5.32;;;1.60;;
21639;SDS011;10981;45.462;10.974;2024-03-02T01:09:17;12.88;;;1.67;;
21639;SDS011;10981;45.462;10.974;2024-03-02T01:11:46;3.20;;;0.90;;
21639;SDS011;10981;45.462;10.974;2024-03-02T01:14:14;9.32;;;1.63;;
21639;SDS011;10981;45.462;10.974;2024-03-02T01:16:42;8.65;;;1.60;;
21639;SDS011;10981;45.462;10.974;2024-03-02T01:19:11;3.67;;;1.33;;
21639;SDS011;10981;45.462;10.974;2024-03-02T01:21:39;3.60;;;0.90;;
21639;SDS011;10981;45.462;10.974;2024-03-02T01:24:10;4.70;;;1.52;;
21639;SDS011;10981;45.462;10.974;2024-03-02T01:26:38;7.70;;;1.40;;
21639;SDS011;10981;45.462;10.974;2024-03-02T01:29:07;7.22;;;1.63;;
21639;SDS011;10981;45.462;10.974;2024-03-02T01:31:35;6.07;;;1.40;;
21639;SDS011;10981;45.462;10.974;2024-03-02T01:34:03;4.38;;;1.30;;
21639;SDS011;10981;45.462;10.974;2024-03-02T01:36:32;7.10;;;1.45;;
21639;SDS011;10981;45.462;10.974;2024-03-02T01:39:00;4.90;;;1.17;;
21639;SDS011;10981;45.462;10.974;2024-03-02T01:41:29;3.70;;;1.15;;
21639;SDS011;10981;45.462;10.974;2024-03-02T01:43:57;4.15;;;0.90;;
21639;SDS011;10981;45.462;10.974;2024-03-02T01:46:25;5.30;;;1.35;;
21639;SDS011;10981;45.462;10.974;2024-03-02T01:48:54;5.63;;;1.35;;
21639;SDS011;10981;45.462;10.974;2024-03-02T01:51:22;3.03;;;1.63;;
21639;SDS011;10981;45.462;10.974;2024-03-02T01:53:50;1.77;;;0.80;;
21639;SDS011;10981;45.462;10.974;2024-03-02T01:56:18;4.82;;;1.08;;
21639;SDS011;10981;45.462;10.974;2024-03-02T01:58:47;6.07;;;0.95;;
21639;SDS011;10981;45.462;10.974;2024-03-02T02:01:15;3.33;;;0.88;;
21639;SDS011;10981;45.462;10.974;2024-03-02T02:03:44;5.18;;;1.13;;
21639;SDS011;10981;45.462;10.974;2024-03-02T02:06:12;2.72;;;0.80;;
21639;SDS011;10981;45.462;10.974;2024-03-02T02:08:40;5.88;;;0.90;;
21639;SDS011;10981;45.462;10.974;2024-03-02T02:11:09;5.05;;;1.02;;
21639;SDS011;10981;45.462;10.974;2024-03-02T02:13:37;3.90;;;1.17;;
21639;SDS011;10981;45.462;10.974;2024-03-02T02:16:06;3.40;;;0.75;;
21639;SDS011;10981;45.462;10.974;2024-03-02T02:18:35;5.00;;;1.33;;
21639;SDS011;10981;45.462;10.974;2024-03-02T02:21:03;9.13;;;1.17;;
21639;SDS011;10981;45.462;10.974;2024-03-02T02:23:32;1.08;;;0.82;;
21639;SDS011;10981;45.462;10.974;2024-03-02T02:26:00;3.08;;;0.77;;
21639;SDS011;10981;45.462;10.974;2024-03-02T02:28:29;3.90;;;1.00;;
21639;SDS011;10981;45.462;10.974;2024-03-02T02:30:58;4.05;;;1.80;;
21639;SDS011;10981;45.462;10.974;2024-03-02T02:33:27;4.05;;;0.95;;
21639;SDS011;10981;45.462;10.974;2024-03-02T02:35:56;1.83;;;0.85;;
21639;SDS011;10981;45.462;10.974;2024-03-02T02:38:24;1.77;;;0.80;;
21639;SDS011;10981;45.462;10.974;2024-03-02T02:40:55;5.90;;;0.80;;
21639;SDS011;10981;45.462;10.974;2024-03-02T02:43:23;5.38;;;1.10;;
21639;SDS011;10981;45.462;10.974;2024-03-02T02:45:51;3.38;;;1.10;;
21639;SDS011;10981;45.462;10.974;2024-03-02T02:48:19;4.85;;;0.88;;
21639;SDS011;10981;45.462;10.974;2024-03-02T02:50:48;2.58;;;0.77;;
21639;SDS011;10981;45.462;10.974;2024-03-02T02:53:19;4.88;;;1.10;;
21639;SDS011;10981;45.462;10.974;2024-03-02T02:55:47;3.40;;;0.57;;
21639;SDS011;10981;45.462;10.974;2024-03-02T02:58:15;4.25;;;0.95;;
21639;SDS011;10981;45.462;10.974;2024-03-02T03:00:44;1.58;;;0.63;;
21639;SDS011;10981;45.462;10.974;2024-03-02T03:03:12;6.07;;;0.90;;
21639;SDS011;10981;45.462;10.974;2024-03-02T03:05:40;2.60;;;1.40;;
21639;SDS011;10981;45.462;10.974;2024-03-02T03:08:08;2.95;;;0.88;;
21639;SDS011;10981;45.462;10.974;2024-03-02T03:10:37;4.55;;;0.90;;
21639;SDS011;10981;45.462;10.974;2024-03-02T03:13:05;3.33;;;1.10;;
21639;SDS011;10981;45.462;10.974;2024-03-02T03:15:35;8.23;;;1.10;;
21639;SDS011;10981;45.462;10.974;2024-03-02T03:18:04;4.13;;;0.90;;
21639;SDS011;10981;45.462;10.974;2024-03-02T03:20:32;6.63;;;2.35;;
21639;SDS011;10981;45.462;10.974;2024-03-02T03:23:01;3.33;;;1.30;;
21639;SDS011;10981;45.462;10.974;2024-03-02T03:25:31;7.07;;;1.50;;
21639;SDS011;10981;45.462;10.974;2024-03-02T03:27:59;6.50;;;1.00;;
21639;SDS011;10981;45.462;10.974;2024-03-02T03:30:29;5.05;;;1.00;;
21639;SDS011;10981;45.462;10.974;2024-03-02T03:32:57;6.00;;;1.17;;
21639;SDS011;10981;45.462;10.974;2024-03-02T03:35:25;4.18;;;0.95;;
21639;SDS011;10981;45.462;10.974;2024-03-02T03:37:54;3.00;;;0.95;;
21639;SDS011;10981;45.462;10.974;2024-03-02T03:40:22;11.10;;;1.30;;
21639;SDS011;10981;45.462;10.974;2024-03-02T03:42:50;2.83;;;1.20;;
21639;SDS011;10981;45.462;10.974;2024-03-02T03:45:18;4.53;;;1.00;;
21639;SDS011;10981;45.462;10.974;2024-03-02T03:47:48;8.90;;;2.58;;
21639;SDS011;10981;45.462;10.974;2024-03-02T03:50:20;7.13;;;1.63;;
21639;SDS011;10981;45.462;10.974;2024-03-02T03:52:48;5.95;;;1.10;;
21639;SDS011;10981;45.462;10.974;2024-03-02T03:55:17;3.05;;;1.10;;
21639;SDS011;10981;45.462;10.974;2024-03-02T03:57:45;6.13;;;1.08;;
21639;SDS011;10981;45.462;10.974;2024-03-02T04:00:13;5.70;;;1.30;;
21639;SDS011;10981;45.462;10.974;2024-03-02T04:02:42;6.35;;;1.13;;
21639;SDS011;10981;45.462;10.974;2024-03-02T04:05:10;4.47;;;1.10;;
21639;SDS011;10981;45.462;10.974;2024-03-02T04:07:39;10.85;;;1.40;;
21639;SDS011;10981;45.462;10.974;2024-03-02T04:10:08;7.72;;;1.38;;
21639;SDS011;10981;45.462;10.974;2024-03-02T04:12:37;12.48;;;1.70;;
21639;SDS011;10981;45.462;10.974;2024-03-02T04:15:06;7.90;;;1.50;;
21639;SDS011;10981;45.462;10.974;2024-03-02T04:17:34;5.65;;;1.60;;
21639;SDS011;10981;45.462;10.974;2024-03-02T04:20:03;6.55;;;1.30;;
21639;SDS011;10981;45.462;10.974;2024-03-02T04:22:33;9.48;;;1.65;;
21639;SDS011;10981;45.462;10.974;2024-03-02T04:25:02;6.13;;;1.55;;
21639;SDS011;10981;45.462;10.974;2024-03-02T04:27:32;9.35;;;1.85;;
21639;SDS011;10981;45.462;10.974;2024-03-02T04:30:03;2.95;;;1.30;;
21639;SDS011;10981;45.462;10.974;2024-03-02T04:32:35;4.95;;;1.30;;
21639;SDS011;10981;45.462;10.974;2024-03-02T04:35:04;12.07;;;2.13;;
21639;SDS011;10981;45.462;10.974;2024-03-02T04:37:35;5.32;;;1.80;;
21639;SDS011;10981;45.462;10.974;2024-03-02T04:40:04;8.65;;;1.30;;
21639;SDS011;10981;45.462;10.974;2024-03-02T04:42:35;6.65;;;1.67;;
21639;SDS011;10981;45.462;10.974;2024-03-02T04:45:04;4.13;;;1.13;;
21639;SDS011;10981;45.462;10.974;2024-03-02T04:47:32;6.68;;;2.03;;
21639;SDS011;10981;45.462;10.974;2024-03-02T04:50:00;4.90;;;1.30;;
21639;SDS011;10981;45.462;10.974;2024-03-02T04:52:29;11.23;;;1.73;;
21639;SDS011;10981;45.462;10.974;2024-03-02T04:54:57;10.43;;;2.08;;
21639;SDS011;10981;45.462;10.974;2024-03-02T04:57:52;17.77;;;2.63;;
21639;SDS011;10981;45.462;10.974;2024-03-02T05:00:22;4.10;;;1.45;;
21639;SDS011;10981;45.462;10.974;2024-03-02T05:02:50;5.50;;;1.98;;
21639;SDS011;10981;45.462;10.974;2024-03-02T05:05:19;7.22;;;2.13;;
21639;SDS011;10981;45.462;10.974;2024-03-02T05:07:47;3.97;;;1.55;;
21639;SDS011;10981;45.462;10.974;2024-03-02T05:10:15;7.93;;;1.85;;
21639;SDS011;10981;45.462;10.974;2024-03-02T05:12:43;7.47;;;1.65;;
21639;SDS011;10981;45.462;10.974;2024-03-02T05:15:12;5.30;;;1.27;;
21639;SDS011;10981;45.462;10.974;2024-03-02T05:17:42;5.53;;;1.65;;
21639;SDS011;10981;45.462;10.974;2024-03-02T05:20:10;5.70;;;1.40;;
21639;SDS011;10981;45.462;10.974;2024-03-02T05:22:42;5.85;;;1.35;;
21639;SDS011;10981;45.462;10.974;2024-03-02T05:25:10;9.07;;;1.70;;
21639;SDS011;10981;45.462;10.974;2024-03-02T05:27:38;7.30;;;2.08;;
21639;SDS011;10981;45.462;10.974;2024-03-02T05:30:08;5.68;;;1.40;;
21639;SDS011;10981;45.462;10.974;2024-03-02T05:32:39;6.93;;;1.50;;
21639;SDS011;10981;45.462;10.974;2024-03-02T05:35:08;6.18;;;1.33;;
21639;SDS011;10981;45.462;10.974;2024-03-02T05:37:38;2.05;;;1.10;;
21639;SDS011;10981;45.462;10.974;2024-03-02T05:40:06;5.32;;;1.30;;
21639;SDS011;10981;45.462;10.974;2024-03-02T05:42:37;6.10;;;1.83;;
21639;SDS011;10981;45.462;10.974;2024-03-02T05:45:06;6.65;;;1.48;;
21639;SDS011;10981;45.462;10.974;2024-03-02T05:47:35;9.52;;;1.50;;
21639;SDS011;10981;45.462;10.974;2024-03-02T05:50:03;6.53;;;1.80;;
21639;SDS011;10981;45.462;10.974;2024-03-02T05:52:32;8.07;;;1.45;;
21639;SDS011;10981;45.462;10.974;2024-03-02T05:55:00;4.97;;;1.52;;
21639;SDS011;10981;45.462;10.974;2024-03-02T05:57:28;5.97;;;1.05;;
21639;SDS011;10981;45.462;10.974;2024-03-02T06:00:11;4.97;;;1.17;;
21639;SDS011;10981;45.462;10.974;2024-03-02T06:02:43;4.15;;;1.20;;
21639;SDS011;10981;45.462;10.974;2024-03-02T06:05:11;3.55;;;1.48;;
21639;SDS011;10981;45.462;10.974;2024-03-02T06:07:39;8.05;;;1.50;;
21639;SDS011;10981;45.462;10.974;2024-03-02T06:10:07;4.00;;;1.38;;
21639;SDS011;10981;45.462;10.974;2024-03-02T06:12:40;7.53;;;1.75;;
21639;SDS011;10981;45.462;10.974;2024-03-02T06:15:09;5.82;;;1.40;;
21639;SDS011;10981;45.462;10.974;2024-03-02T06:17:38;11.15;;;1.80;;
21639;SDS011;10981;45.462;10.974;2024-03-02T06:20:06;2.47;;;1.02;;
21639;SDS011;10981;45.462;10.974;2024-03-02T06:22:36;4.88;;;1.63;;
21639;SDS011;10981;45.462;10.974;2024-03-02T06:25:04;5.07;;;1.13;;
21639;SDS011;10981;45.462;10.974;2024-03-02T06:27:33;5.32;;;1.30;;
21639;SDS011;10981;45.462;10.974;2024-03-02T06:30:01;3.97;;;1.27;;
21639;SDS011;10981;45.462;10.974;2024-03-02T06:32:31;4.13;;;1.75;;
21639;SDS011;10981;45.462;10.974;2024-03-02T06:35:00;4.60;;;1.13;;
21639;SDS011;10981;45.462;10.974;2024-03-02T06:37:28;8.57;;;1.50;;
21639;SDS011;10981;45.462;10.974;2024-03-02T06:39:59;4.90;;;1.45;;
21639;SDS011;10981;45.462;10.974;2024-03-02T06:42:28;5.10;;;1.85;;
21639;SDS011;10981;45.462;10.974;2024-03-02T06:45:01;8.85;;;3.47;;
21639;SDS011;10981;45.462;10.974;2024-03-02T06:47:32;5.72;;;2.45;;
21639;SDS011;10981;45.462;10.974;2024-03-02T06:50:00;5.35;;;2.17;;
21639;SDS011;10981;45.462;10.974;2024-03-02T06:52:29;10.73;;;3.90;;
21639;SDS011;10981;45.462;10.974;2024-03-02T06:54:57;7.90;;;2.80;;
21639;SDS011;10981;45.462;10.974;2024-03-02T06:57:26;6.70;;;2.13;;
21639;SDS011;10981;45.462;10.974;2024-03-02T06:59:54;11.52;;;2.20;;
21639;SDS011;10981;45.462;10.974;2024-03-02T07:02:27;4.13;;;2.53;;
21639;SDS011;10981;45.462;10.974;2024-03-02T07:04:55;8.95;;;3.15;;
21639;SDS011;10981;45.462;10.974;2024-03-02T07:07:23;6.03;;;3.30;;
21639;SDS011;10981;45.462;10.974;2024-03-02T07:09:51;4.72;;;1.83;;
21639;SDS011;10981;45.462;10.974;2024-03-02T07:12:20;8.60;;;3.55;;
21639;SDS011;10981;45.462;10.974;2024-03-02T07:14:50;7.38;;;3.47;;
21639;SDS011;10981;45.462;10.974;2024-03-02T07:17:31;12.50;;;4.18;;
21639;SDS011;10981;45.462;10.974;2024-03-02T07:20:00;9.27;;;2.80;;
21639;SDS011;10981;45.462;10.974;2024-03-02T07:22:28;9.13;;;2.78;;
21639;SDS011;10981;45.462;10.974;2024-03-02T07:24:56;12.50;;;2.40;;
21639;SDS011;10981;45.462;10.974;2024-03-02T07:27:25;7.57;;;3.40;;
21639;SDS011;10981;45.462;10.974;2024-03-02T07:29:53;7.13;;;2.78;;
21639;SDS011;10981;45.462;10.974;2024-03-02T07:32:22;11.23;;;4.13;;
21639;SDS011;10981;45.462;10.974;2024-03-02T07:34:51;8.43;;;3.35;;
21639;SDS011;10981;45.462;10.974;2024-03-02T07:37:19;11.02;;;3.28;;
21639;SDS011;10981;45.462;10.974;2024-03-02T07:39:47;11.52;;;3.53;;
21639;SDS011;10981;45.462;10.974;2024-03-02T07:42:16;4.72;;;1.83;;
21639;SDS011;10981;45.462;10.974;2024-03-02T07:44:44;8.73;;;2.25;;
21639;SDS011;10981;45.462;10.974;2024-03-02T07:47:12;4.32;;;2.30;;
21639;SDS011;10981;45.462;10.974;2024-03-02T07:49:41;2.28;;;1.30;;
21639;SDS011;10981;45.462;10.974;2024-03-02T07:52:11;3.13;;;1.50;;
21639;SDS011;10981;45.462;10.974;2024-03-02T07:54:39;8.68;;;1.60;;
21639;SDS011;10981;45.462;10.974;2024-03-02T07:57:08;4.05;;;1.35;;
21639;SDS011;10981;45.462;10.974;2024-03-02T07:59:36;3.47;;;1.27;;
21639;SDS011;10981;45.462;10.974;2024-03-02T08:02:05;3.08;;;1.20;;
21639;SDS011;10981;45.462;10.974;2024-03-02T08:04:34;5.75;;;1.30;;
21639;SDS011;10981;45.462;10.974;2024-03-02T08:07:04;3.55;;;1.92;;
21639;SDS011;10981;45.462;10.974;2024-03-02T08:09:33;5.30;;;1.65;;
21639;SDS011;10981;45.462;10.974;2024-03-02T08:12:04;3.75;;;2.10;;
21639;SDS011;10981;45.462;10.974;2024-03-02T08:14:39;5.28;;;1.67;;
21639;SDS011;10981;45.462;10.974;2024-03-02T08:17:07;4.65;;;2.50;;
21639;SDS011;10981;45.462;10.974;2024-03-02T08:19:54;2.92;;;1.70;;
21639;SDS011;10981;45.462;10.974;2024-03-02T08:22:23;4.65;;;1.70;;
21639;SDS011;10981;45.462;10.974;2024-03-02T08:24:55;4.87;;;2.00;;
21639;SDS011;10981;45.462;10.974;2024-03-02T08:27:23;3.65;;;1.90;;
21639;SDS011;10981;45.462;10.974;2024-03-02T08:29:52;2.63;;;1.60;;
21639;SDS011;10981;45.462;10.974;2024-03-02T08:32:20;3.45;;;1.40;;
21639;SDS011;10981;45.462;10.974;2024-03-02T08:34:49;3.60;;;1.30;;
21639;SDS011;10981;45.462;10.974;2024-03-02T08:37:17;3.67;;;1.60;;
21639;SDS011;10981;45.462;10.974;2024-03-02T08:39:46;1.92;;;1.10;;
21639;SDS011;10981;45.462;10.974;2024-03-02T08:42:14;3.63;;;1.35;;
21639;SDS011;10981;45.462;10.974;2024-03-02T08:44:42;2.17;;;0.90;;
21639;SDS011;10981;45.462;10.974;2024-03-02T08:47:10;1.70;;;1.10;;
21639;SDS011;10981;45.462;10.974;2024-03-02T08:49:38;4.18;;;1.40;;
21639;SDS011;10981;45.462;10.974;2024-03-02T08:52:07;6.00;;;1.63;;
21639;SDS011;10981;45.462;10.974;2024-03-02T08:54:35;3.58;;;1.02;;
21639;SDS011;10981;45.462;10.974;2024-03-02T08:57:05;4.25;;;1.83;;
21639;SDS011;10981;45.462;10.974;2024-03-02T08:59:34;5.28;;;2.30;;
21639;SDS011;10981;45.462;10.974;2024-03-02T09:02:02;7.80;;;2.30;;
21639;SDS011;10981;45.462;10.974;2024-03-02T09:04:31;7.82;;;2.70;;
21639;SDS011;10981;45.462;10.974;2024-03-02T09:07:01;4.15;;;2.15;;
21639;SDS011;10981;45.462;10.974;2024-03-02T09:09:29;3.78;;;1.70;;
21639;SDS011;10981;45.462;10.974;2024-03-02T09:11:59;5.45;;;1.90;;
21639;SDS011;10981;45.462;10.974;2024-03-02T09:14:27;2.90;;;1.27;;
21639;SDS011;10981;45.462;10.974;2024-03-02T09:16:55;3.13;;;1.35;;
21639;SDS011;10981;45.462;10.974;2024-03-02T09:19:24;6.05;;;1.45;;
21639;SDS011;10981;45.462;10.974;2024-03-02T09:21:52;4.18;;;1.13;;
21639;SDS011;10981;45.462;10.974;2024-03-02T09:24:22;4.28;;;1.08;;
21639;SDS011;10981;45.462;10.974;2024-03-02T09:26:54;4.45;;;2.33;;
21639;SDS011;10981;45.462;10.974;2024-03-02T09:29:22;3.42;;;1.35;;
21639;SDS011;10981;45.462;10.974;2024-03-02T09:31:50;2.42;;;1.30;;
21639;SDS011;10981;45.462;10.974;2024-03-02T09:34:19;5.38;;;1.35;;
21639;SDS011;10981;45.462;10.974;2024-03-02T09:36:47;2.75;;;1.45;;
21639;SDS011;10981;45.462;10.974;2024-03-02T09:39:16;2.65;;;1.05;;
21639;SDS011;10981;45.462;10.974;2024-03-02T09:41:45;10.75;;;1.23;;
21639;SDS011;10981;45.462;10.974;2024-03-02T09:44:14;2.55;;;1.10;;
21639;SDS011;10981;45.462;10.974;2024-03-02T09:46:43;2.95;;;1.05;;
21639;SDS011;10981;45.462;10.974;2024-03-02T09:49:18;2.08;;;1.05;;
21639;SDS011;10981;45.462;10.974;2024-03-02T09:51:47;4.90;;;1.90;;
21639;SDS011;10981;45.462;10.974;2024-03-02T09:54:16;6.03;;;1.50;;
21639;SDS011;10981;45.462;10.974;2024-03-02T09:59:18;6.30;;;1.10;;
21639;SDS011;10981;45.462;10.974;2024-03-02T10:02:00;6.93;;;1.40;;
21639;SDS011;10981;45.462;10.974;2024-03-02T10:04:30;5.45;;;1.55;;
21639;SDS011;10981;45.462;10.974;2024-03-02T10:07:16;6.28;;;1.63;;
21639;SDS011;10981;45.462;10.974;2024-03-02T10:09:46;5.65;;;1.70;;
21639;SDS011;10981;45.462;10.974;2024-03-02T10:12:16;3.65;;;1.85;;
21639;SDS011;10981;45.462;10.974;2024-03-02T10:14:45;2.42;;;1.48;;
21639;SDS011;10981;45.462;10.974;2024-03-02T10:17:16;7.45;;;1.52;;
21639;SDS011;10981;45.462;10.974;2024-03-02T10:19:45;4.95;;;1.58;;
21639;SDS011;10981;45.462;10.974;2024-03-02T10:22:17;6.93;;;1.70;;
21639;SDS011;10981;45.462;10.974;2024-03-02T10:24:45;3.72;;;1.40;;
21639;SDS011;10981;45.462;10.974;2024-03-02T10:27:16;4.88;;;1.50;;
21639;SDS011;10981;45.462;10.974;2024-03-02T10:29:48;3.78;;;2.03;;
21639;SDS011;10981;45.462;10.974;2024-03-02T10:32:16;2.17;;;1.60;;
21639;SDS011;10981;45.462;10.974;2024-03-02T10:34:45;3.53;;;1.27;;
21639;SDS011;10981;45.462;10.974;2024-03-02T10:37:16;5.55;;;1.77;;
21639;SDS011;10981;45.462;10.974;2024-03-02T10:39:46;6.20;;;1.60;;
21639;SDS011;10981;45.462;10.974;2024-03-02T10:42:15;2.92;;;1.42;;
21639;SDS011;10981;45.462;10.974;2024-03-02T10:44:44;1.90;;;1.17;;
21639;SDS011;10981;45.462;10.974;2024-03-02T10:47:13;3.97;;;2.45;;
21639;SDS011;10981;45.462;10.974;2024-03-02T10:49:44;5.43;;;1.35;;
21639;SDS011;10981;45.462;10.974;2024-03-02T10:52:16;2.47;;;0.90;;
21639;SDS011;10981;45.462;10.974;2024-03-02T10:54:45;3.80;;;1.40;;
21639;SDS011;10981;45.462;10.974;2024-03-02T10:57:13;3.35;;;1.27;;
21639;SDS011;10981;45.462;10.974;2024-03-02T10:59:56;2.38;;;0.93;;
21639;SDS011;10981;45.462;10.974;2024-03-02T11:02:28;1.13;;;1.02;;
21639;SDS011;10981;45.462;10.974;2024-03-02T11:04:59;5.60;;;1.42;;
21639;SDS011;10981;45.462;10.974;2024-03-02T11:07:33;2.22;;;1.45;;
21639;SDS011;10981;45.462;10.974;2024-03-02T11:10:04;3.85;;;1.73;;
21639;SDS011;10981;45.462;10.974;2024-03-02T11:12:38;3.75;;;1.70;;
21639;SDS011;10981;45.462;10.974;2024-03-02T11:15:10;5.60;;;1.33;;
21639;SDS011;10981;45.462;10.974;2024-03-02T11:17:44;2.65;;;1.10;;
21639;SDS011;10981;45.462;10.974;2024-03-02T11:20:14;1.65;;;1.40;;
21639;SDS011;10981;45.462;10.974;2024-03-02T11:22:46;1.70;;;1.40;;
21639;SDS011;10981;45.462;10.974;2024-03-02T11:25:24;4.25;;;1.40;;
21639;SDS011;10981;45.462;10.974;2024-03-02T11:33:04;4.03;;;1.40;;
21639;SDS011;10981;45.462;10.974;2024-03-02T11:35:42;6.15;;;1.40;;
21639;SDS011;10981;45.462;10.974;2024-03-02T11:38:17;6.28;;;1.83;;
21639;SDS011;10981;45.462;10.974;2024-03-02T11:40:46;5.47;;;1.67;;
21639;SDS011;10981;45.462;10.974;2024-03-02T11:43:14;4.50;;;1.65;;
21639;SDS011;10981;45.462;10.974;2024-03-02T11:45:43;3.55;;;1.80;;
21639;SDS011;10981;45.462;10.974;2024-03-02T11:48:15;3.35;;;1.88;;
21639;SDS011;10981;45.462;10.974;2024-03-02T11:50:47;5.05;;;1.77;;
21639;SDS011;10981;45.462;10.974;2024-03-02T11:53:20;6.05;;;2.10;;
21639;SDS011;10981;45.462;10.974;2024-03-02T11:55:49;7.95;;;2.00;;
21639;SDS011;10981;45.462;10.974;2024-03-02T11:58:19;2.28;;;1.60;;
21639;SDS011;10981;45.462;10.974;2024-03-02T12:00:51;5.72;;;1.88;;
21639;SDS011;10981;45.462;10.974;2024-03-02T12:03:23;2.97;;;1.50;;
21639;SDS011;10981;45.462;10.974;2024-03-02T12:05:53;9.02;;;2.15;;
21639;SDS011;10981;45.462;10.974;2024-03-02T12:08:22;3.10;;;1.98;;
21639;SDS011;10981;45.462;10.974;2024-03-02T12:11:01;6.40;;;2.15;;
21639;SDS011;10981;45.462;10.974;2024-03-02T12:13:31;7.15;;;2.45;;
21639;SDS011;10981;45.462;10.974;2024-03-02T12:16:00;8.00;;;2.70;;
21639;SDS011;10981;45.462;10.974;2024-03-02T12:18:29;5.00;;;2.40;;
21639;SDS011;10981;45.462;10.974;2024-03-02T12:20:58;5.00;;;2.67;;
21639;SDS011;10981;45.462;10.974;2024-03-02T12:23:26;9.95;;;3.10;;
21639;SDS011;10981;45.462;10.974;2024-03-02T12:25:55;4.13;;;2.03;;
21639;SDS011;10981;45.462;10.974;2024-03-02T12:28:23;5.88;;;2.30;;
21639;SDS011;10981;45.462;10.974;2024-03-02T12:30:52;5.18;;;3.00;;
21639;SDS011;10981;45.462;10.974;2024-03-02T12:33:21;5.63;;;2.85;;
21639;SDS011;10981;45.462;10.974;2024-03-02T12:35:49;6.15;;;3.47;;
21639;SDS011;10981;45.462;10.974;2024-03-02T12:38:18;5.35;;;2.78;;
21639;SDS011;10981;45.462;10.974;2024-03-02T12:40:49;5.55;;;3.05;;
21639;SDS011;10981;45.462;10.974;2024-03-02T12:43:18;5.10;;;2.50;;
21639;SDS011;10981;45.462;10.974;2024-03-02T12:45:47;7.50;;;3.25;;
21639;SDS011;10981;45.462;10.974;2024-03-02T12:48:15;7.30;;;2.95;;
21639;SDS011;10981;45.462;10.974;2024-03-02T12:50:44;6.07;;;2.70;;
21639;SDS011;10981;45.462;10.974;2024-03-02T12:53:15;6.75;;;2.88;;
21639;SDS011;10981;45.462;10.974;2024-03-02T12:55:44;4.72;;;2.95;;
21639;SDS011;10981;45.462;10.974;2024-03-02T12:58:19;7.70;;;4.00;;
21639;SDS011;10981;45.462;10.974;2024-03-02T13:00:51;6.25;;;3.05;;
21639;SDS011;10981;45.462;10.974;2024-03-02T13:03:35;11.25;;;5.55;;
21639;SDS011;10981;45.462;10.974;2024-03-02T13:06:06;4.13;;;2.83;;
21639;SDS011;10981;45.462;10.974;2024-03-02T13:08:35;7.78;;;2.80;;
21639;SDS011;10981;45.462;10.974;2024-03-02T13:11:04;6.68;;;3.40;;
21639;SDS011;10981;45.462;10.974;2024-03-02T13:13:34;8.05;;;3.47;;
21639;SDS011;10981;45.462;10.974;2024-03-02T13:16:10;5.25;;;3.25;;
21639;SDS011;10981;45.462;10.974;2024-03-02T13:18:39;6.32;;;3.53;;
21639;SDS011;10981;45.462;10.974;2024-03-02T13:21:08;4.72;;;3.30;;
21639;SDS011;10981;45.462;10.974;2024-03-02T13:23:37;7.18;;;3.72;;
21639;SDS011;10981;45.462;10.974;2024-03-02T13:26:05;8.75;;;3.00;;
21639;SDS011;10981;45.462;10.974;2024-03-02T13:28:34;3.67;;;2.75;;
21639;SDS011;10981;45.462;10.974;2024-03-02T13:31:03;8.57;;;3.42;;
21639;SDS011;10981;45.462;10.974;2024-03-02T13:33:32;4.85;;;3.17;;
21639;SDS011;10981;45.462;10.974;2024-03-02T13:36:00;5.30;;;2.95;;
21639;SDS011;10981;45.462;10.974;2024-03-02T13:38:32;7.00;;;3.13;;
21639;SDS011;10981;45.462;10.974;2024-03-02T13:41:01;5.85;;;3.28;;
21639;SDS011;10981;45.462;10.974;2024-03-02T13:43:29;5.05;;;3.15;;
21639;SDS011;10981;45.462;10.974;2024-03-02T13:45:59;6.95;;;2.78;;
21639;SDS011;10981;45.462;10.974;2024-03-02T13:48:28;3.50;;;2.28;;
21639;SDS011;10981;45.462;10.974;2024-03-02T13:50:56;3.85;;;2.17;;
21639;SDS011;10981;45.462;10.974;2024-03-02T13:53:24;3.83;;;2.25;;
21639;SDS011;10981;45.462;10.974;2024-03-02T13:55:52;5.20;;;2.45;;
21639;SDS011;10981;45.462;10.974;2024-03-02T13:58:21;3.00;;;1.67;;
21639;SDS011;10981;45.462;10.974;2024-03-02T14:00:49;3.88;;;2.45;;
21639;SDS011;10981;45.462;10.974;2024-03-02T14:03:17;3.13;;;1.90;;
21639;SDS011;10981;45.462;10.974;2024-03-02T14:05:45;4.68;;;1.52;;
21639;SDS011;10981;45.462;10.974;2024-03-02T14:08:17;3.10;;;1.80;;
21639;SDS011;10981;45.462;10.974;2024-03-02T14:10:46;3.97;;;1.73;;
21639;SDS011;10981;45.462;10.974;2024-03-02T14:13:15;92.75;;;8.10;;
21639;SDS011;10981;45.462;10.974;2024-03-02T14:15:43;2.13;;;1.88;;
21639;SDS011;10981;45.462;10.974;2024-03-02T14:18:17;5.93;;;2.50;;
21639;SDS011;10981;45.462;10.974;2024-03-02T14:20:45;4.45;;;2.22;;
21639;SDS011;10981;45.462;10.974;2024-03-02T14:23:19;5.13;;;1.90;;
21639;SDS011;10981;45.462;10.974;2024-03-02T14:25:47;5.68;;;2.08;;
21639;SDS011;10981;45.462;10.974;2024-03-02T14:28:16;6.03;;;2.10;;
21639;SDS011;10981;45.462;10.974;2024-03-02T14:31:05;4.97;;;2.38;;
21639;SDS011;10981;45.462;10.974;2024-03-02T14:33:33;3.25;;;2.00;;
21639;SDS011;10981;45.462;10.974;2024-03-02T14:36:03;3.38;;;1.85;;
21639;SDS011;10981;45.462;10.974;2024-03-02T14:38:31;8.27;;;2.47;;
21639;SDS011;10981;45.462;10.974;2024-03-02T14:41:00;3.22;;;2.20;;
21639;SDS011;10981;45.462;10.974;2024-03-02T14:43:30;4.07;;;2.08;;
21639;SDS011;10981;45.462;10.974;2024-03-02T14:45:58;5.65;;;2.15;;
21639;SDS011;10981;45.462;10.974;2024-03-02T14:48:27;3.50;;;1.70;;
21639;SDS011;10981;45.462;10.974;2024-03-02T14:50:55;5.53;;;1.92;;
21639;SDS011;10981;45.462;10.974;2024-03-02T14:53:24;5.32;;;2.40;;
21639;SDS011;10981;45.462;10.974;2024-03-02T14:55:52;3.53;;;1.60;;
21639;SDS011;10981;45.462;10.974;2024-03-02T14:58:21;4.60;;;2.33;;
21639;SDS011;10981;45.462;10.974;2024-03-02T15:00:49;5.22;;;2.53;;
21639;SDS011;10981;45.462;10.974;2024-03-02T15:03:17;6.72;;;2.30;;
21639;SDS011;10981;45.462;10.974;2024-03-02T15:05:46;4.13;;;2.72;;